Bengough, Canada
Current Conditions -  °F | °C
As of 1:00 PM on Friday 21 Nov 2014 (Local Time) from CYMJ Reporting Station
Broken Clouds Broken Clouds  
Wind Chill: 37°   Ceiling: 22000
Heat Index: 45°   Visibility: 15mi
Dew Point: 36°   Wind: 20mph
Humidity: 71%   Direction: 270°W
Pressure: 29.54"   Gusts: 28mph
Location:  49.4°N, 105.12°W
Report Text: CYMJ 211900Z 27017G24KT 15SM FEW060 BKN220 07/02 A2954 RMKSC1CI1 SLP024
Loading
Personal Weather Stations






























Interactive Weather Map New forecast layout! Learn more

10-Day Weather Forecast

Advertisements
Track Severe Weather on mobile